»·PEaware :: N9915H KWHP-KCRQ

N9915H :: KWHP-KCRQ

FLIGHT INFORMATION

Flight Status: Arrived
Operator: Privately registered:
United States
More flights under this callsign
Pilot: Charlton B. (28558)
Aircraft: ECLIPSE 500
(EA50)
More flights by this aircraft type
Origin: KWHP Whiteman
United States
Destination: KCRQ McClellan-Palomar
United States
More flights between these airports :: More routes between these airports
Route: +
File this flight plan on PilotEdge
Remarks:
Altitude:
(Current/Filed)
5,500ft
Speed:
(Current/Filed)
0kts
Departed: 28-Jul-20 01:51 PM
Arrived: 28-Jul-20 02:37 PM
Distance/Time
Traveled:
88nm/0:46
Distance/Time
To Go:
Arrived

Flight Plot

Page will automatically refresh every two minutes.


Map Options




Map Legend


Flown Route
Filed Route
Departure Airport
Arrival Airport
Navaid (VOR, NDB)
Fix

Horizontal Profiles

Position Reports

Time Latitude Longitude Heading Altitude Ground
Speed
28-Jul-20 13:43 34.260601 -118.413419 138 997ft 0kts
28-Jul-20 13:44 34.259281 -118.412724 143 990ft 8kts
28-Jul-20 13:45 34.257525 -118.410723 131 979ft 12kts
28-Jul-20 13:46 34.256800 -118.409873 163 975ft 0kts
28-Jul-20 13:47 34.256490 -118.409790 152 973ft 5kts
28-Jul-20 13:48 34.255640 -118.408917 150 969ft 0kts
28-Jul-20 13:49 34.255141 -118.408991 259 968ft 0kts
28-Jul-20 13:50 34.271241 -118.426110 321 1700ft 163kts
28-Jul-20 13:51 34.289918 -118.483875 272 2814ft 194kts
28-Jul-20 13:52 34.272391 -118.539023 231 3743ft 180kts
28-Jul-20 13:53 34.239557 -118.581081 222 4681ft 181kts
28-Jul-20 13:54 34.205746 -118.620703 209 5463ft 153kts
28-Jul-20 13:55 34.173967 -118.601073 112 5484ft 159kts
28-Jul-20 13:56 34.146195 -118.561555 147 5487ft 158kts
28-Jul-20 13:57 34.103447 -118.531127 153 5498ft 181kts
28-Jul-20 13:58 34.057180 -118.502706 155 5502ft 188kts
28-Jul-20 13:59 34.009890 -118.475380 156 5502ft 189kts
28-Jul-20 14:00 33.962152 -118.448430 157 5503ft 190kts
28-Jul-20 14:01 33.913385 -118.414922 146 5507ft 213kts
28-Jul-20 14:02 33.864961 -118.372615 147 5506ft 216kts
28-Jul-20 14:03 33.816023 -118.329959 147 5503ft 217kts
28-Jul-20 14:04 33.767108 -118.287401 147 5500ft 217kts
28-Jul-20 14:05 33.725508 -118.235151 130 5500ft 219kts
28-Jul-20 14:06 33.688266 -118.177711 130 5527ft 218kts
28-Jul-20 14:07 33.651121 -118.120515 130 5527ft 216kts
28-Jul-20 14:08 33.614286 -118.063882 130 5518ft 215kts
28-Jul-20 14:09 33.577365 -118.007181 130 5518ft 216kts
28-Jul-20 14:10 33.540152 -117.950143 130 5517ft 216kts
28-Jul-20 14:11 33.502089 -117.891918 130 7464ft 238kts
28-Jul-20 14:12 33.462069 -117.830729 130 7517ft 222kts
28-Jul-20 14:13 33.423715 -117.772225 130 7515ft 223kts
28-Jul-20 14:14 33.385419 -117.713920 130 7513ft 222kts
28-Jul-20 14:15 33.347116 -117.655662 131 7511ft 221kts
28-Jul-20 14:16 33.312077 -117.602388 131 7062ft 183kts
28-Jul-20 14:18 33.282975 -117.558246 132 5948ft 163kts
28-Jul-20 14:19 33.255927 -117.517300 132 5493ft 153kts
28-Jul-20 14:20 33.242036 -117.466655 96 5493ft 170kts
28-Jul-20 14:21 33.240668 -117.409553 91 5194ft 182kts
28-Jul-20 14:22 33.242228 -117.350964 91 3990ft 169kts
28-Jul-20 14:23 33.242326 -117.280686 91 3960ft 265kts
28-Jul-20 14:24 33.243031 -117.196083 91 3894ft 203kts
28-Jul-20 14:25 33.244283 -117.142878 91 3928ft 146kts
28-Jul-20 14:26 33.245429 -117.091027 91 3929ft 155kts
28-Jul-20 14:27 33.246354 -117.038536 91 3932ft 158kts
28-Jul-20 14:28 33.237252 -116.991125 166 3939ft 148kts
28-Jul-20 14:29 33.197436 -116.996504 191 3934ft 144kts
28-Jul-20 14:30 33.169583 -117.021882 259 3938ft 143kts
28-Jul-20 14:31 33.162352 -117.068522 257 3833ft 151kts
28-Jul-20 14:32 33.154788 -117.115863 257 3039ft 135kts
28-Jul-20 14:32 33.149078 -117.151347 257 2312ft 120kts
28-Jul-20 14:34 33.142346 -117.194589 257 1741ft 133kts
28-Jul-20 14:35 33.135261 -117.236967 254 1079ft 107kts
28-Jul-20 14:35 33.130893 -117.263904 258 546ft 92kts
28-Jul-20 14:37 33.127082 -117.282587 136 334ft 0kts
28-Jul-20 14:37 33.127102 -117.282003 77 334ft 8kts
28-Jul-20 14:38 33.126876 -117.279058 91 334ft 5kts

Navigation Log

Ident Type
Flight plan parsing failed, navigation log unavailable